Terminal Aerodrome Forecast
Issued by NWS

Current Version | Previous Version | Text Only | Print | Product List | Glossary Off
Versions: 1 2 3 4 5 6 7 8 9 10 11 12 13 14 15 16

000
FTUS41 KRNK 132334
TAFLWB
TAF
KLWB 132334Z 1400/1424 17010KT P6SM SCT120
     FM140900 17005KT P6SM BKN025
     FM141600 19009KT P6SM SCT025 OVC060
     FM142000 21007KT P6SM -SHRA OVC025=

USA.gov is the U.S. government's official web portal to all federal, state and local government web resources and services.